Time;durP1;ratioP1;P1;durP2;ratioP2;P2;SDS_P1;SDS_P2;PMS_P1;PMS_P2;Temp;Humidity;BMP_temperature;BMP_pressure;BME280_temperature;BME280_humidity;BME280_pressure;Samples;Min_cycle;Max_cycle;Signal;HPM_P1;HPM_P2
2021/01/01 03:46:50;;;;;;;515.90;82.38;;;2.90;86.70;;;;;;5063261;24;20088;-75
2021/01/01 03:49:16;;;;;;;459.38;76.68;;;2.70;88.10;;;;;;4818028;29;20061;-75
2021/01/01 03:51:42;;;;;;;504.17;82.28;;;2.70;89.10;;;;;;4802166;29;20042;-74
2021/01/01 03:54:08;;;;;;;315.42;57.70;;;2.80;87.80;;;;;;4798760;30;20157;-75
2021/01/01 03:56:33;;;;;;;311.45;57.30;;;3.00;87.50;;;;;;4784259;30;20035;-75
2021/01/01 03:58:59;;;;;;;165.93;47.85;;;3.00;86.80;;;;;;4784020;30;20039;-75
2021/01/01 04:01:25;;;;;;;254.77;55.65;;;3.10;86.50;;;;;;4786376;29;20029;-75
2021/01/01 04:03:50;;;;;;;352.52;63.17;;;3.10;86.30;;;;;;4801976;29;20042;-75
2021/01/01 04:06:16;;;;;;;247.02;50.22;;;3.20;86.00;;;;;;4802025;29;20027;-75
2021/01/01 04:08:42;;;;;;;155.63;47.38;;;3.20;85.80;;;;;;4818173;29;20031;-76
2021/01/01 04:11:07;;;;;;;387.05;64.00;;;3.30;85.60;;;;;;4817938;29;20019;-75
2021/01/01 04:13:33;;;;;;;268.73;57.72;;;3.30;86.20;;;;;;4817984;29;20031;-76
2021/01/01 04:16:01;;;;;;;281.00;49.53;;;3.40;85.30;;;;;;4817798;29;20054;-75
2021/01/01 04:18:27;;;;;;;378.20;65.38;;;3.40;85.00;;;;;;4801747;29;20114;-76
2021/01/01 04:20:52;;;;;;;266.45;55.35;;;3.40;85.10;;;;;;4817776;29;20030;-75
2021/01/01 04:23:18;;;;;;;343.90;58.95;;;3.40;85.00;;;;;;4817955;29;20045;-75
2021/01/01 04:25:47;;;;;;;260.58;62.10;;;3.40;85.00;;;;;;4817167;29;20023;-75
2021/01/01 04:28:12;;;;;;;513.80;72.55;;;3.40;85.00;;;;;;4801312;29;20089;-75
2021/01/01 04:30:38;;;;;;;465.05;72.38;;;3.50;85.20;;;;;;4786607;29;20106;-75
2021/01/01 04:33:04;;;;;;;383.23;63.95;;;3.50;85.50;;;;;;4801466;29;20038;-75
2021/01/01 04:35:30;;;;;;;430.95;70.85;;;3.50;85.10;;;;;;4817580;29;20093;-75
2021/01/01 04:37:55;;;;;;;420.63;66.80;;;3.50;84.90;;;;;;4817653;29;20027;-76
2021/01/01 04:40:21;;;;;;;283.67;60.63;;;3.50;85.00;;;;;;4817437;29;20031;-75
2021/01/01 04:42:47;;;;;;;475.45;73.32;;;3.50;84.90;;;;;;4817579;29;20046;-75
2021/01/01 04:45:15;;;;;;;450.17;74.05;;;3.50;84.90;;;;;;4818365;29;20328;-75
2021/01/01 04:47:41;;;;;;;315.83;62.03;;;3.50;84.60;;;;;;4806684;29;20038;-75
2021/01/01 04:50:07;;;;;;;266.65;55.72;;;3.50;84.90;;;;;;4801257;29;20031;-76
2021/01/01 04:52:33;;;;;;;280.00;59.45;;;3.50;84.70;;;;;;4817308;29;20035;-76
2021/01/01 04:55:03;;;;;;;378.55;68.40;;;3.50;84.60;;;;;;4801109;29;20030;-75
2021/01/01 04:57:29;;;;;;;332.85;69.40;;;3.50;84.70;;;;;;4786084;29;20038;-75
2021/01/01 04:59:54;;;;;;;338.02;58.03;;;3.60;84.80;;;;;;4800960;29;20168;-77
2021/01/01 05:02:20;;;;;;;327.05;62.47;;;3.60;84.60;;;;;;4800300;29;20035;-76
2021/01/01 05:04:47;;;;;;;376.48;66.53;;;3.60;84.50;;;;;;4783100;30;20089;-75
2021/01/01 05:07:17;;;;;;;318.90;61.55;;;3.60;84.50;;;;;;4799150;30;20050;-75
2021/01/01 05:09:43;;;;;;;273.02;60.05;;;3.60;84.40;;;;;;4783114;30;20039;-76
2021/01/01 05:12:09;;;;;;;302.35;59.67;;;3.50;84.20;;;;;;4783088;30;20033;-76
2021/01/01 05:14:36;;;;;;;291.25;54.00;;;3.50;84.40;;;;;;4805655;29;20076;-75
2021/01/01 05:17:01;;;;;;;356.77;64.90;;;3.50;84.30;;;;;;4800332;29;20043;-76
2021/01/01 05:19:43;;;;;;;279.45;56.70;;;3.50;84.00;;;;;;4800616;29;20282;-76
2021/01/01 05:22:12;;;;;;;210.50;53.38;;;3.60;84.10;;;;;;4800583;29;20031;-77
2021/01/01 05:24:41;;;;;;;208.77;52.28;;;3.50;84.20;;;;;;4800784;29;20038;-76
2021/01/01 05:27:15;;;;;;;203.43;47.50;;;3.50;84.30;;;;;;4800723;29;20034;-76
2021/01/01 05:29:50;;;;;;;249.23;54.20;;;3.60;84.20;;;;;;4800679;29;20031;-76
2021/01/01 05:32:20;;;;;;;241.80;50.78;;;3.60;84.20;;;;;;4785613;29;20040;-76
2021/01/01 05:34:46;;;;;;;249.65;56.88;;;3.60;84.10;;;;;;4785600;29;20253;-77
2021/01/01 05:37:25;;;;;;;198.80;46.70;;;3.70;83.80;;;;;;4799719;29;20031;-76
2021/01/01 05:40:03;;;;;;;191.70;49.20;;;3.60;83.60;;;;;;4800506;29;20034;-76
2021/01/01 05:42:29;;;;;;;206.57;52.92;;;3.60;83.60;;;;;;4816446;29;20039;-76
2021/01/01 05:44:54;;;;;;;172.80;50.50;;;3.70;83.50;;;;;;4800403;29;20042;-77
2021/01/01 05:47:22;;;;;;;243.95;54.58;;;3.70;83.50;;;;;;4789867;30;20047;-76
2021/01/01 05:49:48;;;;;;;192.75;49.95;;;3.70;83.50;;;;;;4782540;30;20039;-76
2021/01/01 05:52:21;;;;;;;275.15;55.88;;;3.60;83.50;;;;;;4782421;30;20027;-76
2021/01/01 05:54:49;;;;;;;249.65;52.72;;;3.70;83.40;;;;;;4767480;30;20099;-76
2021/01/01 05:57:16;;;;;;;225.40;54.17;;;3.70;83.10;;;;;;4782231;30;20023;-77
2021/01/01 05:59:42;;;;;;;;;;;3.70;83.10;;;;;;4782757;30;20042;-77
2021/01/01 06:02:12;;;;;;;194.55;53.20;;;3.70;82.80;;;;;;4781767;29;20025;-76
2021/01/01 06:04:39;;;;;;;206.65;55.55;;;3.60;82.90;;;;;;4799984;29;20043;-76
2021/01/01 06:07:05;;;;;;;;;;;3.60;83.30;;;;;;4785593;29;20105;-76
2021/01/01 06:09:33;;;;;;;165.07;50.42;;;3.60;83.20;;;;;;4800284;29;19917;-77
2021/01/01 06:12:08;;;;;;;147.05;45.38;;;3.70;83.10;;;;;;4799826;29;20031;-76
2021/01/01 06:14:45;;;;;;;165.68;49.38;;;3.70;82.90;;;;;;4822851;29;20043;-76
2021/01/01 06:17:11;;;;;;;203.95;53.60;;;3.70;82.80;;;;;;4799648;29;20095;-76
2021/01/01 06:19:44;;;;;;;152.90;48.78;;;3.70;82.70;;;;;;4767313;30;20028;-76
2021/01/01 06:22:16;;;;;;;173.38;50.38;;;3.70;82.90;;;;;;4767309;30;20035;-76
2021/01/01 06:24:44;;;;;;;197.63;52.38;;;3.70;83.00;;;;;;4782107;30;20222;-77
2021/01/01 06:27:12;;;;;;;196.38;54.15;;;3.70;82.70;;;;;;4785880;29;20210;-77
2021/01/01 06:29:41;;;;;;;206.45;58.10;;;3.70;82.90;;;;;;4816032;29;20019;-77
2021/01/01 06:32:09;;;;;;;200.77;53.47;;;3.70;83.10;;;;;;4799628;29;20026;-77
2021/01/01 06:34:35;;;;;;;186.13;52.38;;;3.70;83.00;;;;;;4815955;29;20042;-76
2021/01/01 06:37:00;;;;;;;171.85;49.88;;;3.70;83.00;;;;;;4816019;29;20026;-76
2021/01/01 06:39:38;;;;;;;192.13;54.90;;;3.80;83.00;;;;;;4799787;29;20115;-77
2021/01/01 06:42:04;;;;;;;215.85;54.90;;;3.70;82.90;;;;;;4799541;29;20026;-77
2021/01/01 06:44:43;;;;;;;191.07;54.30;;;3.70;82.90;;;;;;4784783;29;20062;-77
2021/01/01 06:47:10;;;;;;;202.50;54.28;;;3.70;83.20;;;;;;4798538;29;20106;-76
2021/01/01 06:49:40;;;;;;;197.82;53.83;;;3.70;83.30;;;;;;4817965;29;20041;-76
2021/01/01 06:52:17;;;;;;;253.88;56.42;;;3.70;83.10;;;;;;4819526;29;20033;-76
2021/01/01 06:54:53;;;;;;;209.20;55.85;;;3.80;83.10;;;;;;4803303;29;20039;-76
2021/01/01 06:57:26;;;;;;;195.77;53.53;;;3.80;83.10;;;;;;4803326;29;20041;-77
2021/01/01 06:59:53;;;;;;;142.52;46.42;;;3.80;83.20;;;;;;4803387;29;20382;-76
2021/01/01 07:02:30;;;;;;;194.68;54.95;;;3.80;83.50;;;;;;4780063;29;20033;-77
2021/01/01 07:04:57;;;;;;;208.23;55.08;;;3.80;83.40;;;;;;4797007;29;20039;-76
2021/01/01 07:07:41;;;;;;;;;;;3.90;83.20;;;;;;4811368;29;20027;-77
2021/01/01 07:10:12;;;;;;;144.85;46.30;;;4.00;83.00;;;;;;4794620;30;19909;-76
2021/01/01 07:12:38;;;;;;;181.60;54.55;;;4.00;82.80;;;;;;4770176;30;20256;-76
2021/01/01 07:15:24;;;;;;;205.88;67.38;;;4.00;82.90;;;;;;4785060;30;20039;-77
2021/01/01 07:17:50;;;;;;;197.20;57.58;;;4.00;83.00;;;;;;4778098;30;20083;-77
2021/01/01 07:20:16;;;;;;;170.90;52.87;;;4.10;83.00;;;;;;4803044;29;20114;-77
2021/01/01 07:22:41;;;;;;;156.90;50.67;;;4.10;83.00;;;;;;4794690;29;20210;-77
2021/01/01 07:25:08;;;;;;;166.95;50.83;;;4.10;82.90;;;;;;4793227;29;20047;-77
2021/01/01 07:27:34;;;;;;;160.70;47.27;;;4.10;82.70;;;;;;4807547;29;20294;-76
2021/01/01 07:30:11;;;;;;;177.65;53.10;;;4.10;82.30;;;;;;4794341;29;20102;-76
2021/01/01 07:32:37;;;;;;;177.50;51.58;;;4.10;82.30;;;;;;4791971;29;20246;-77
2021/01/01 07:35:08;;;;;;;167.82;50.90;;;4.10;82.60;;;;;;4794278;29;20104;-79
2021/01/01 07:37:34;;;;;;;142.90;46.63;;;4.10;82.70;;;;;;4805293;29;20027;-77
2021/01/01 07:40:01;;;;;;;186.23;54.17;;;4.00;82.60;;;;;;4812653;29;20051;-77
2021/01/01 07:42:26;;;;;;;182.07;53.63;;;4.10;82.80;;;;;;4770548;29;20027;-77
2021/01/01 07:44:52;;;;;;;149.50;48.58;;;4.10;82.70;;;;;;4815026;29;20027;-77
2021/01/01 07:47:18;;;;;;;150.10;49.72;;;4.10;83.20;;;;;;4806030;29;20047;-75
2021/01/01 07:49:45;;;;;;;148.57;46.85;;;4.10;82.30;;;;;;4804867;29;20031;-77
2021/01/01 07:52:14;;;;;;;168.87;49.93;;;4.10;82.50;;;;;;4794026;29;20027;-79
2021/01/01 07:54:47;;;;;;;153.70;49.85;;;4.10;82.60;;;;;;4791731;29;20096;-76
2021/01/01 07:57:13;;;;;;;158.07;49.53;;;4.10;82.70;;;;;;4789264;30;20195;-74
2021/01/01 07:59:39;;;;;;;156.70;48.90;;;4.10;82.60;;;;;;4799955;29;20099;-78
2021/01/01 08:02:06;;;;;;;140.55;47.85;;;4.20;82.70;;;;;;4798544;29;20065;-78
2021/01/01 08:04:34;;;;;;;151.10;47.50;;;4.20;82.50;;;;;;4802329;29;20045;-76
2021/01/01 08:06:59;;;;;;;160.10;50.20;;;4.20;82.40;;;;;;4802348;29;20079;-78
2021/01/01 08:09:25;;;;;;;144.15;48.42;;;4.20;82.80;;;;;;4813274;29;20062;-75
2021/01/01 08:12:03;;;;;;;150.68;47.13;;;4.20;82.50;;;;;;4796396;29;20027;-78
2021/01/01 08:14:28;;;;;;;133.98;45.63;;;4.30;82.40;;;;;;4794268;29;20035;-78
2021/01/01 08:16:54;;;;;;;149.43;45.90;;;4.30;82.20;;;;;;4806386;29;20035;-78
2021/01/01 08:19:23;;;;;;;144.25;48.30;;;4.30;81.80;;;;;;4782395;29;20031;-78
2021/01/01 08:21:54;;;;;;;131.52;45.63;;;4.30;82.20;;;;;;4796786;29;20038;-78
2021/01/01 08:24:21;;;;;;;153.85;46.83;;;4.30;82.10;;;;;;4787011;29;20042;-76
2021/01/01 08:26:48;;;;;;;144.55;49.08;;;4.40;82.00;;;;;;4801250;29;20037;-76
2021/01/01 08:29:15;;;;;;;147.32;49.15;;;4.40;81.80;;;;;;4801284;29;20045;-76
2021/01/01 08:31:41;;;;;;;142.57;46.88;;;4.40;81.70;;;;;;4816970;29;20026;-75
2021/01/01 08:34:09;;;;;;;144.13;47.67;;;4.40;81.80;;;;;;4817256;29;20026;-75
2021/01/01 08:36:35;;;;;;;139.50;50.00;;;4.40;81.70;;;;;;4801197;29;20136;-75
2021/01/01 08:39:11;;;;;;;151.38;51.08;;;4.40;81.30;;;;;;4800913;29;20043;-75
2021/01/01 08:41:41;;;;;;;145.30;49.33;;;4.30;81.60;;;;;;4817003;29;20072;-75
2021/01/01 08:44:08;;;;;;;150.10;51.45;;;4.30;81.50;;;;;;4816768;29;20061;-75
2021/01/01 08:46:34;;;;;;;;;;;4.30;81.80;;;;;;4774670;29;20066;-75
2021/01/01 08:49:20;;;;;;;149.33;45.67;;;4.40;81.70;;;;;;4797230;29;19909;-75
2021/01/01 08:51:49;;;;;;;127.87;42.33;;;4.40;81.50;;;;;;4772756;29;20037;-78
2021/01/01 08:54:25;;;;;;;137.45;46.72;;;4.50;81.30;;;;;;4806380;29;20192;-78
2021/01/01 08:56:58;;;;;;;136.98;45.35;;;4.40;81.40;;;;;;4808096;29;20043;-75
2021/01/01 08:59:25;;;;;;;125.97;44.80;;;4.40;81.70;;;;;;4800870;29;20315;-75
2021/01/01 09:01:52;;;;;;;124.82;42.95;;;4.40;81.80;;;;;;4806730;29;20034;-76
2021/01/01 09:04:22;;;;;;;120.60;44.40;;;4.40;81.80;;;;;;4797664;29;20267;-75
2021/01/01 09:06:59;;;;;;;132.00;44.97;;;4.50;82.00;;;;;;4787339;29;20031;-75
2021/01/01 09:09:30;;;;;;;129.23;42.95;;;4.50;82.00;;;;;;4774792;29;20023;-76
2021/01/01 09:12:15;;;;;;;122.50;45.17;;;4.50;82.00;;;;;;4804176;29;20039;-75
2021/01/01 09:14:52;;;;;;;97.93;39.10;;;4.50;82.10;;;;;;4797714;29;20108;-75
2021/01/01 09:17:20;;;;;;;118.53;44.15;;;4.50;82.30;;;;;;4821401;29;20058;-75
2021/01/01 09:19:46;;;;;;;119.70;42.13;;;4.60;82.40;;;;;;4796791;29;20042;-75
2021/01/01 09:22:17;;;;;;;129.98;42.67;;;4.60;81.80;;;;;;4815044;29;20022;-76
2021/01/01 09:24:44;;;;;;;116.03;40.20;;;4.60;82.10;;;;;;4792554;29;20035;-75
2021/01/01 09:27:10;;;;;;;107.20;40.47;;;4.60;81.90;;;;;;4810029;29;20034;-75
2021/01/01 09:29:36;;;;;;;135.88;44.70;;;4.50;82.30;;;;;;4800275;29;20030;-75
2021/01/01 09:32:07;;;;;;;130.90;45.03;;;4.40;82.90;;;;;;4816064;29;20098;-75
2021/01/01 09:34:32;;;;;;;139.63;52.08;;;4.50;83.20;;;;;;4800164;29;20035;-76
2021/01/01 09:37:06;;;;;;;113.60;41.17;;;4.50;83.00;;;;;;4799930;29;20063;-76
2021/01/01 09:39:32;;;;;;;108.88;40.72;;;4.60;83.00;;;;;;4785126;29;20087;-75
2021/01/01 09:41:57;;;;;;;120.40;42.05;;;4.70;82.70;;;;;;4799884;29;20451;-75
2021/01/01 09:44:23;;;;;;;110.47;40.00;;;4.70;82.70;;;;;;4799973;29;20099;-75
2021/01/01 09:46:49;;;;;;;106.15;38.05;;;4.70;82.70;;;;;;4799654;29;20065;-76
2021/01/01 09:49:15;;;;;;;105.55;37.08;;;4.70;82.70;;;;;;4799836;29;20242;-75
2021/01/01 09:51:40;;;;;;;105.35;37.58;;;4.60;82.60;;;;;;4799993;29;20030;-75
2021/01/01 09:54:06;;;;;;;95.60;39.85;;;4.70;82.40;;;;;;4815792;29;20038;-76
2021/01/01 09:56:36;;;;;;;86.28;37.58;;;4.60;82.50;;;;;;4815878;29;20086;-77
2021/01/01 09:59:02;;;;;;;87.82;35.78;;;4.70;82.20;;;;;;4799784;29;20155;-77
2021/01/01 10:01:31;;;;;;;103.90;39.03;;;4.70;82.00;;;;;;4789902;30;20094;-75
2021/01/01 10:03:57;;;;;;;117.38;38.92;;;4.70;82.30;;;;;;4813877;29;20310;-75
2021/01/01 10:06:23;;;;;;;102.77;38.80;;;4.60;82.80;;;;;;4815649;29;20027;-76
2021/01/01 10:08:49;;;;;;;102.53;37.20;;;4.70;82.50;;;;;;4799439;29;20115;-75
2021/01/01 10:11:15;;;;;;;106.18;37.47;;;4.80;82.40;;;;;;4815469;29;20305;-76
2021/01/01 10:13:41;;;;;;;92.72;35.22;;;4.40;82.20;;;;;;4816342;29;20034;-75
2021/01/01 10:16:11;;;;;;;105.88;36.38;;;4.30;83.00;;;;;;4816060;29;20035;-76
2021/01/01 10:18:40;;;;;;;105.20;36.63;;;4.30;83.10;;;;;;4784730;29;20308;-75
2021/01/01 10:21:07;;;;;;;102.38;38.80;;;4.40;83.40;;;;;;4799557;29;20039;-75
2021/01/01 10:23:34;;;;;;;108.25;36.70;;;4.40;83.00;;;;;;4799222;29;20370;-75
2021/01/01 10:25:59;;;;;;;110.80;40.10;;;4.50;82.90;;;;;;4799653;29;20037;-75
2021/01/01 10:28:25;;;;;;;111.50;37.88;;;4.60;82.70;;;;;;4813046;29;20035;-76
2021/01/01 10:30:51;;;;;;;94.43;35.30;;;4.60;82.70;;;;;;4784453;29;20345;-76
2021/01/01 10:33:17;;;;;;;103.20;37.92;;;4.60;82.90;;;;;;4792014;29;20055;-76
2021/01/01 10:35:43;;;;;;;105.35;38.40;;;4.60;82.40;;;;;;4808603;29;20036;-75
2021/01/01 10:38:08;;;;;;;102.13;37.80;;;4.60;82.30;;;;;;4813476;29;20168;-75
2021/01/01 10:40:34;;;;;;;105.43;37.17;;;4.70;82.40;;;;;;4782023;29;20039;-76
2021/01/01 10:43:00;;;;;;;104.20;38.00;;;4.70;82.20;;;;;;4790718;29;20045;-75
2021/01/01 10:45:26;;;;;;;113.43;38.22;;;4.70;82.10;;;;;;4803161;29;20059;-75
2021/01/01 10:47:51;;;;;;;111.25;39.28;;;4.60;82.10;;;;;;4775660;29;20026;-76
2021/01/01 10:50:17;;;;;;;107.47;37.90;;;4.70;82.40;;;;;;4791863;29;20042;-76
2021/01/01 10:52:43;;;;;;;104.82;39.00;;;4.80;82.00;;;;;;4783443;30;20052;-76
2021/01/01 10:55:10;;;;;;;102.03;38.53;;;4.80;82.20;;;;;;4811329;29;20059;-76
2021/01/01 10:57:36;;;;;;;107.78;40.83;;;4.90;82.00;;;;;;4812669;29;20064;-76
2021/01/01 11:00:03;;;;;;;113.72;40.63;;;4.90;81.80;;;;;;4779429;29;20080;-76
2021/01/01 11:02:29;;;;;;;112.45;40.63;;;4.90;81.30;;;;;;4798257;29;20046;-75
2021/01/01 11:04:54;;;;;;;117.30;45.60;;;4.90;81.90;;;;;;4766905;30;20419;-76
2021/01/01 11:07:20;;;;;;;112.57;42.72;;;4.90;81.80;;;;;;4782029;30;20031;-76
2021/01/01 11:09:46;;;;;;;111.63;41.45;;;4.80;81.50;;;;;;4767507;30;20069;-76
2021/01/01 11:12:11;;;;;;;107.35;40.03;;;4.90;81.90;;;;;;4781748;30;20046;-77
2021/01/01 12:25:24;;;;;;;79.35;35.83;;;4.80;82.40;;;;;;4809302;29;20237;-77
2021/01/01 12:27:51;;;;;;;80.60;35.55;;;4.80;82.00;;;;;;4809373;29;20027;-78
2021/01/01 12:30:17;;;;;;;80.82;36.05;;;4.80;81.70;;;;;;4804649;29;20062;-78
2021/01/01 12:32:45;;;;;;;74.32;35.10;;;4.80;81.90;;;;;;4791516;29;20042;-77
2021/01/01 12:35:11;;;;;;;75.18;32.58;;;4.50;82.10;;;;;;4798783;30;20046;-77
2021/01/01 12:37:39;;;;;;;76.25;33.70;;;4.30;83.10;;;;;;4799446;30;20042;-74
2021/01/01 12:40:07;;;;;;;79.13;33.00;;;4.50;82.60;;;;;;4798969;29;20039;-75
2021/01/01 12:42:32;;;;;;;73.25;32.03;;;4.70;82.40;;;;;;4796609;29;20100;-75
2021/01/01 12:44:58;;;;;;;72.93;33.50;;;4.80;81.70;;;;;;4787100;29;20094;-75
2021/01/01 12:47:25;;;;;;;76.90;34.28;;;4.80;81.20;;;;;;4800282;29;20077;-75
2021/01/01 12:49:52;;;;;;;81.03;36.35;;;4.70;81.70;;;;;;4816605;29;20317;-75
2021/01/01 12:52:19;;;;;;;78.07;34.08;;;4.70;81.70;;;;;;4785448;29;20058;-75
2021/01/01 12:54:44;;;;;;;83.80;37.03;;;4.80;81.80;;;;;;4786189;29;20029;-75
2021/01/01 12:57:10;;;;;;;78.03;35.58;;;4.80;81.70;;;;;;4782119;30;20036;-75
2021/01/01 12:59:36;;;;;;;80.03;35.00;;;4.80;81.80;;;;;;4794994;29;20043;-75
2021/01/01 13:02:02;;;;;;;78.90;36.85;;;4.70;81.20;;;;;;4816369;29;20627;-74
2021/01/01 13:04:27;;;;;;;96.72;46.65;;;4.70;81.90;;;;;;4816670;29;20039;-75
2021/01/01 13:06:53;;;;;;;86.32;40.67;;;4.70;81.80;;;;;;4798700;29;20110;-75
2021/01/01 13:09:19;;;;;;;75.60;35.03;;;4.70;81.70;;;;;;4798507;30;20039;-74
2021/01/01 13:11:46;;;;;;;72.55;36.28;;;4.60;81.70;;;;;;4798287;29;20055;-74
2021/01/01 13:14:12;;;;;;;77.88;38.53;;;4.60;82.20;;;;;;4798696;30;20061;-75
2021/01/01 13:16:38;;;;;;;88.68;37.33;;;4.50;82.50;;;;;;4799564;29;20039;-74
2021/01/01 13:19:04;;;;;;;85.32;38.17;;;4.60;82.70;;;;;;4798171;29;20032;-75
2021/01/01 13:21:32;;;;;;;94.65;40.75;;;4.70;82.60;;;;;;4771517;29;20039;-75
2021/01/01 13:23:59;;;;;;;83.32;40.15;;;4.70;82.40;;;;;;4799888;29;20043;-75
2021/01/01 13:26:26;;;;;;;81.53;37.05;;;4.70;81.90;;;;;;4782327;30;20035;-75
2021/01/01 13:28:53;;;;;;;91.55;48.55;;;4.70;82.20;;;;;;4813118;29;20027;-75
2021/01/01 13:31:20;;;;;;;95.20;44.33;;;4.80;82.10;;;;;;4815969;29;20179;-74
2021/01/01 13:33:46;;;;;;;87.47;43.38;;;4.80;81.70;;;;;;4782584;30;20310;-75
2021/01/01 13:36:17;;;;;;;87.20;41.10;;;4.80;81.80;;;;;;4782410;30;20039;-75
2021/01/01 13:38:43;;;;;;;92.15;40.13;;;4.90;81.60;;;;;;4782351;30;20285;-75
2021/01/01 13:41:13;;;;;;;86.75;41.10;;;4.80;81.70;;;;;;4784529;30;20146;-75
2021/01/01 13:43:44;;;;;;;89.30;40.95;;;4.80;81.90;;;;;;4786813;29;20034;-75
2021/01/01 13:46:18;;;;;;;95.28;42.38;;;4.80;82.00;;;;;;4783600;30;20271;-74
2021/01/01 13:48:44;;;;;;;89.63;40.83;;;4.90;81.90;;;;;;4788774;30;20034;-75
2021/01/01 13:51:09;;;;;;;93.35;40.00;;;4.90;81.90;;;;;;4791965;30;20028;-74
2021/01/01 13:53:35;;;;;;;91.18;43.03;;;4.90;81.70;;;;;;4795107;30;20284;-74
2021/01/01 13:56:01;;;;;;;90.45;40.47;;;4.90;81.50;;;;;;4786132;30;20089;-74
2021/01/01 13:58:27;;;;;;;93.10;40.42;;;4.90;81.90;;;;;;4793621;30;20051;-75
2021/01/01 14:00:52;;;;;;;94.80;42.80;;;5.00;82.00;;;;;;4787743;30;20031;-75
2021/01/01 14:03:18;;;;;;;93.45;42.08;;;5.00;81.50;;;;;;4792743;30;20023;-75
2021/01/01 14:05:48;;;;;;;95.85;41.65;;;5.00;81.50;;;;;;4790562;29;20089;-74
2021/01/01 14:08:18;;;;;;;97.72;43.40;;;5.00;81.60;;;;;;4784187;30;20035;-75
2021/01/01 14:10:45;;;;;;;108.72;45.28;;;5.00;81.40;;;;;;4796283;30;20054;-75
2021/01/01 14:13:11;;;;;;;88.45;41.75;;;4.90;81.80;;;;;;4797079;29;20050;-74
2021/01/01 14:15:37;;;;;;;107.00;45.65;;;5.00;81.90;;;;;;4794088;30;20279;-74
2021/01/01 14:18:03;;;;;;;93.13;39.78;;;4.90;81.90;;;;;;4796989;30;20039;-74
2021/01/01 14:20:29;;;;;;;88.35;40.25;;;4.90;81.90;;;;;;4795092;30;20043;-75
2021/01/01 14:22:55;;;;;;;91.22;39.80;;;4.90;82.00;;;;;;4793016;29;20101;-75
2021/01/01 14:25:21;;;;;;;83.82;36.67;;;4.80;81.80;;;;;;4787583;30;20027;-74
2021/01/01 14:27:46;;;;;;;75.03;34.83;;;4.90;81.60;;;;;;4789280;30;20098;-75
2021/01/01 14:30:13;;;;;;;77.18;34.72;;;4.80;81.50;;;;;;4793708;30;20084;-77
2021/01/01 14:32:39;;;;;;;77.30;34.93;;;4.80;81.60;;;;;;4789491;30;20314;-74
2021/01/01 14:35:09;;;;;;;86.43;35.80;;;4.50;81.90;;;;;;4777900;30;20104;-75
2021/01/01 14:37:37;;;;;;;75.68;35.17;;;4.50;82.10;;;;;;4783078;30;20023;-74
2021/01/01 14:40:03;;;;;;;83.93;39.83;;;4.60;82.10;;;;;;4792660;30;20050;-76
2021/01/01 14:42:29;;;;;;;86.90;38.10;;;4.70;81.90;;;;;;4787087;30;20032;-75
2021/01/01 14:44:55;;;;;;;77.80;35.92;;;4.70;81.70;;;;;;4785393;30;20035;-75
2021/01/01 14:47:20;;;;;;;70.90;31.20;;;4.60;82.00;;;;;;4787470;30;20101;-74
2021/01/01 14:49:46;;;;;;;64.35;30.48;;;4.60;82.00;;;;;;4795321;30;20340;-75
2021/01/01 14:52:12;;;;;;;70.70;31.08;;;4.50;81.90;;;;;;4792591;30;20031;-74
2021/01/01 14:54:38;;;;;;;67.53;31.42;;;4.50;81.90;;;;;;4793287;30;20035;-74
2021/01/01 14:57:04;;;;;;;65.82;28.60;;;4.60;81.90;;;;;;4782030;30;20184;-74
2021/01/01 14:59:29;;;;;;;65.13;27.00;;;4.60;81.80;;;;;;4787544;30;20048;-74
2021/01/01 15:01:55;;;;;;;65.88;29.88;;;4.50;81.30;;;;;;4769147;30;20071;-74
2021/01/01 15:04:21;;;;;;;64.50;29.98;;;4.50;81.70;;;;;;4780560;30;20043;-74
2021/01/01 15:06:53;;;;;;;68.00;29.60;;;4.60;81.70;;;;;;4791410;30;20062;-73
2021/01/01 15:09:18;;;;;;;66.35;29.63;;;4.40;81.70;;;;;;4785881;30;20099;-75
2021/01/01 15:11:44;;;;;;;72.85;31.95;;;4.30;81.90;;;;;;4794953;30;20096;-73
2021/01/01 15:14:10;;;;;;;72.03;32.40;;;4.30;82.20;;;;;;4790608;30;20334;-73
2021/01/01 15:16:36;;;;;;;72.97;32.08;;;4.30;82.30;;;;;;4794592;30;20035;-73
2021/01/01 15:19:01;;;;;;;82.32;34.17;;;4.30;82.40;;;;;;4793906;29;20066;-73
2021/01/01 15:21:27;;;;;;;88.07;35.90;;;4.40;82.40;;;;;;4788595;30;20039;-73
2021/01/01 15:23:53;;;;;;;89.68;36.67;;;4.20;82.50;;;;;;4794467;29;20230;-73
2021/01/01 15:26:22;;;;;;;84.30;36.70;;;4.30;82.70;;;;;;4791654;30;20049;-73
2021/01/01 15:28:48;;;;;;;85.05;38.88;;;4.10;82.90;;;;;;4787594;29;20047;-73
2021/01/01 15:31:14;;;;;;;70.05;31.35;;;4.20;83.20;;;;;;4774702;30;20031;-73
2021/01/01 15:33:40;;;;;;;80.88;34.95;;;4.40;82.90;;;;;;4789357;30;20294;-74
2021/01/01 15:36:06;;;;;;;67.20;32.35;;;4.40;82.50;;;;;;4791166;30;20257;-72
2021/01/01 15:38:31;;;;;;;120.53;49.42;;;4.50;82.50;;;;;;4791323;30;20040;-76
2021/01/01 15:40:57;;;;;;;83.60;34.35;;;4.50;82.20;;;;;;4793673;29;20040;-73
2021/01/01 15:43:23;;;;;;;79.68;33.67;;;4.50;81.80;;;;;;4790014;29;20692;-72
2021/01/01 15:45:49;;;;;;;77.18;34.65;;;4.50;81.80;;;;;;4799869;29;20043;-73
2021/01/01 15:48:14;;;;;;;85.35;37.28;;;4.50;81.80;;;;;;4795347;29;20380;-73
2021/01/01 15:50:41;;;;;;;88.68;38.15;;;4.50;81.70;;;;;;4809133;29;20030;-73
2021/01/01 15:53:07;;;;;;;80.30;35.72;;;4.50;81.60;;;;;;4800659;29;20084;-73
2021/01/01 15:55:32;;;;;;;77.93;36.38;;;4.50;81.90;;;;;;4815711;29;20260;-73
2021/01/01 15:57:58;;;;;;;115.00;56.85;;;4.60;81.70;;;;;;4808349;29;20290;-77
2021/01/01 16:00:24;;;;;;;85.95;33.88;;;4.50;81.60;;;;;;4787493;29;20031;-73
2021/01/01 16:02:50;;;;;;;74.07;32.03;;;4.40;81.80;;;;;;4808967;29;20089;-73
2021/01/01 16:05:16;;;;;;;83.93;32.40;;;4.30;82.20;;;;;;4780182;29;20248;-73
2021/01/01 16:07:41;;;;;;;85.22;34.08;;;4.40;82.50;;;;;;4799654;29;20070;-73
2021/01/01 16:10:07;;;;;;;97.28;36.60;;;4.30;82.80;;;;;;4801020;29;20100;-73
2021/01/01 16:12:33;;;;;;;112.47;50.70;;;4.40;82.60;;;;;;4808625;29;20389;-73
2021/01/01 16:14:59;;;;;;;136.48;57.35;;;4.50;82.30;;;;;;4806510;29;20034;-73
2021/01/01 16:17:24;;;;;;;107.63;40.42;;;4.60;82.10;;;;;;4807225;29;20027;-72
2021/01/01 16:19:50;;;;;;;110.13;44.35;;;4.50;82.20;;;;;;4811448;29;20031;-73
2021/01/01 16:22:16;;;;;;;134.95;62.28;;;4.60;82.20;;;;;;4809490;29;20043;-73
2021/01/01 16:24:42;;;;;;;122.78;50.08;;;4.50;82.00;;;;;;4797035;29;20046;-73
2021/01/01 16:27:08;;;;;;;101.15;38.00;;;4.60;82.10;;;;;;4796606;30;20191;-72
2021/01/01 16:29:33;;;;;;;77.13;32.55;;;4.60;82.10;;;;;;4790703;30;20031;-73
2021/01/01 16:31:59;;;;;;;86.53;32.28;;;4.70;82.00;;;;;;4805248;29;20082;-73
2021/01/01 16:34:25;;;;;;;92.32;35.05;;;4.70;81.70;;;;;;4785082;30;20857;-73
2021/01/01 16:36:50;;;;;;;89.70;34.63;;;4.70;81.50;;;;;;4809868;29;20035;-73
2021/01/01 16:39:19;;;;;;;85.30;34.45;;;4.70;81.50;;;;;;4804878;29;20042;-73
2021/01/01 16:41:46;;;;;;;111.70;44.33;;;4.70;81.70;;;;;;4795300;29;20040;-73
2021/01/01 16:44:14;;;;;;;88.05;36.75;;;4.70;81.40;;;;;;4816199;29;20058;-72
2021/01/01 16:46:42;;;;;;;86.40;33.08;;;4.70;81.30;;;;;;4783489;29;20393;-73
2021/01/01 16:49:09;;;;;;;90.78;34.22;;;4.80;81.30;;;;;;4804097;29;20322;-73
2021/01/01 16:51:37;;;;;;;87.13;31.40;;;4.80;81.00;;;;;;4813987;29;20062;-72
2021/01/01 16:54:05;;;;;;;88.80;32.35;;;4.70;81.10;;;;;;4788949;29;20039;-72
2021/01/01 16:56:31;;;;;;;89.78;33.90;;;4.70;81.00;;;;;;4793079;29;20035;-73
2021/01/01 16:58:57;;;;;;;94.53;34.75;;;4.70;81.20;;;;;;4799865;29;20046;-73
2021/01/01 17:01:23;;;;;;;96.63;34.88;;;4.70;80.90;;;;;;4792062;29;20073;-73
2021/01/01 17:03:49;;;;;;;89.93;34.05;;;4.70;81.20;;;;;;4816066;29;20062;-73
2021/01/01 17:06:22;;;;;;;101.38;34.22;;;4.70;81.20;;;;;;4815584;29;20023;-73
2021/01/01 17:08:51;;;;;;;91.70;34.05;;;4.70;81.30;;;;;;4799987;29;20042;-74
2021/01/01 17:11:19;;;;;;;91.90;34.72;;;4.80;81.30;;;;;;4809311;29;20023;-73
2021/01/01 17:13:48;;;;;;;92.05;35.70;;;4.80;81.00;;;;;;4790133;29;20087;-73
2021/01/01 17:16:23;;;;;;;107.20;37.28;;;4.80;80.90;;;;;;4787466;29;20080;-73
2021/01/01 17:18:50;;;;;;;114.45;37.58;;;4.60;81.50;;;;;;4815802;29;20053;-73
2021/01/01 17:21:20;;;;;;;113.03;36.90;;;4.50;82.20;;;;;;4815853;29;20037;-73
2021/01/01 17:23:48;;;;;;;108.40;38.53;;;4.50;82.30;;;;;;4816129;29;20050;-73
2021/01/01 17:26:16;;;;;;;125.55;39.28;;;4.40;82.40;;;;;;4784409;29;20106;-72
2021/01/01 17:28:42;;;;;;;111.70;37.20;;;4.50;82.70;;;;;;4804649;29;20032;-72
2021/01/01 17:31:13;;;;;;;112.78;38.70;;;4.50;82.70;;;;;;4798902;29;20106;-72